Latest Weather Observations for Puckapunyal-Lyon Hill (Defence)

IDV60801

Issued at 6:22 pm EST Tuesday 18 June 2024 (issued every 10 minutes, with the page automatically refreshed every 10 minutes)

About weather observations | Map of weather stations | Latest weather observations for VIC | Other Formats
Station Details ID: 088167 Name: PUCKAPUNYAL LYON HILL (DEFENCE) Lat: -36.94 Lon: 145.05 Height: 193.0 m
Data from the previous 72 hours. | See also: Recent months at Puckapunyal-Lyon Hill (Defence)
Date/Time
EST
Temp
°C
App
Temp
°C
Dew
Point
°C
Rel
Hum
%
Delta-T
°C
Wind Press
QNH
hPa
Press
MSL
hPa
Rain since
9am
mm
Dir  Spd
km/h
Gust
km/h
Spd
kts
Gust
kts
18/06:00pm 8.1 4.9 3.0 70 2.2 S 9 13 5 7 - - 0.0
18/05:30pm 8.6 5.4 3.0 68 2.4 S 9 13 5 7 - - 0.0
18/05:00pm 9.6 6.8 3.1 64 2.8 S 7 9 4 5 - - 0.0
18/04:30pm 10.9 8.8 3.9 62 3.1 SE 4 6 2 3 - - 0.0
18/04:00pm 11.2 8.7 3.7 60 3.4 SE 6 6 3 3 - - 0.0
18/03:30pm 11.4 8.8 3.4 58 3.6 SSE 6 9 3 5 - - 0.0
18/03:00pm 11.5 8.8 3.8 59 3.5 SE 7 9 4 5 - - 0.0
18/02:30pm 11.4 8.7 3.9 60 3.4 SE 7 11 4 6 - - 0.0
18/02:00pm 11.3 8.1 3.1 57 3.6 ESE 9 17 5 9 - - 0.0
18/01:30pm 11.0 7.5 3.5 60 3.3 SE 11 20 6 11 - - 0.0
18/01:00pm 11.0 7.9 3.8 61 3.2 SSE 9 13 5 7 - - 0.0
18/12:30pm 10.3 7.3 4.0 65 2.8 S 9 15 5 8 - - 0.0
18/12:00pm 10.0 7.5 4.6 69 2.4 SSE 7 9 4 5 - - 0.0
18/11:30am 9.1 6.4 3.9 70 2.3 SSE 7 13 4 7 - - 0.0
18/11:00am 8.1 5.0 3.8 74 1.9 S 9 15 5 8 - - 0.0
18/10:30am 7.7 4.6 3.4 74 1.9 SSE 9 15 5 8 - - 0.0
18/10:00am 6.6 3.1 3.6 81 1.3 S 11 17 6 9 - - 0.0
18/09:30am 5.8 2.7 3.5 85 1.0 S 9 17 5 9 - - 0.0
18/09:00am 4.7 2.1 3.0 89 0.7 S 6 9 3 5 - - 0.2
18/08:30am 4.0 0.7 2.7 91 0.5 S 9 13 5 7 - - 0.2
18/08:00am 3.1 -1.0 2.1 93 0.4 S 13 17 7 9 - - 0.2
18/07:30am 2.6 -0.8 1.6 93 0.4 S 9 15 5 8 - - 0.0
18/07:00am 2.7 -0.8 1.5 92 0.5 SSE 9 15 5 8 - - 0.0
18/06:30am 2.4 -0.5 1.5 94 0.3 S 6 9 3 5 - - 0.0
18/06:00am 2.5 -0.9 1.6 94 0.4 SSE 9 17 5 9 - - 0.0
18/05:30am 3.0 -0.4 2.1 94 0.4 S 9 13 5 7 - - 0.0
18/05:00am 2.8 -0.9 2.2 96 0.2 SSE 11 13 6 7 - - 0.0
18/04:30am 2.6 -0.8 1.9 95 0.3 SE 9 13 5 7 - - 0.0
18/04:00am 3.0 -0.3 2.3 95 0.3 SSE 9 13 5 7 - - 0.0
18/03:30am 3.4 -1.0 2.7 95 0.3 SSE 15 19 8 10 - - 0.0
18/03:00am 3.5 -0.5 2.6 94 0.4 SSE 13 17 7 9 - - 0.0
18/02:30am 3.7 0.5 2.8 94 0.4 SSE 9 13 5 7 - - 0.0
18/02:00am 4.1 0.5 3.1 93 0.4 S 11 17 6 9 - - 0.0
18/01:30am 4.1 0.5 3.1 93 0.4 SSE 11 17 6 9 - - 0.0
18/01:00am 4.6 1.1 3.6 93 0.4 S 11 15 6 8 - - 0.0
18/12:30am 4.9 1.1 4.0 94 0.4 S 13 17 7 9 - - 0.0
18/12:00am 4.5 1.4 3.6 94 0.4 SSE 9 15 5 8 - - 0.0
 
Date/Time
EST
Temp
°C
App
Temp
°C
Dew
Point
°C
Rel
Hum
%
Delta-T
°C
Wind Press
QNH
hPa
Press
MSL
hPa
Rain since
9am
mm
Dir  Spd
km/h
Gust
km/h
Spd
kts
Gust
kts
17/11:30pm 5.7 2.7 4.3 91 0.6 S 9 15 5 8 - - 0.0
17/11:00pm 6.1 2.4 4.6 90 0.7 S 13 20 7 11 - - 0.0
17/10:30pm 6.4 2.4 4.7 89 0.7 SSW 15 20 8 11 - - 0.0
17/10:00pm 6.5 3.2 4.7 88 0.8 S 11 17 6 9 - - 0.0
17/09:30pm 6.8 2.7 4.5 85 1.0 S 15 20 8 11 - - 0.0
17/09:00pm 6.4 3.4 4.2 86 1.0 S 9 13 5 7 - - 0.0
17/08:30pm 7.1 4.2 4.4 83 1.2 S 9 13 5 7 - - 0.0
17/08:00pm 7.8 4.5 4.4 79 1.5 S 11 17 6 9 - - 0.0
17/07:30pm 8.0 4.3 4.4 78 1.6 S 13 19 7 10 - - 0.0
17/07:00pm 8.3 4.9 3.9 74 1.9 S 11 19 6 10 - - 0.0
17/06:30pm 8.5 4.5 3.1 69 2.3 S 13 19 7 10 - - 0.0
17/06:00pm 9.0 5.4 3.0 66 2.6 SSW 11 17 6 9 - - 0.0
17/05:30pm 9.6 5.7 3.4 65 2.7 S 13 20 7 11 - - 0.0
17/05:00pm 10.3 6.9 3.8 64 2.9 SSW 11 17 6 9 - - 0.0
17/04:30pm 11.4 7.8 3.2 57 3.6 S 11 20 6 11 - - 0.0
17/04:00pm 12.0 7.7 3.5 56 3.8 SSE 15 22 8 12 - - 0.0
17/03:30pm 12.2 7.7 4.4 59 3.6 SSW 17 24 9 13 - - 0.0
17/03:00pm 12.6 8.0 3.6 54 4.1 S 17 28 9 15 - - 0.0
17/02:30pm 12.8 7.8 3.7 54 4.1 S 19 28 10 15 - - 0.0
17/02:00pm 12.7 8.1 3.6 54 4.1 SSW 17 28 9 15 - - 0.0
17/01:30pm 12.8 7.3 4.0 55 4.0 S 22 35 12 19 - - 0.0
17/01:00pm 12.9 7.9 3.8 54 4.1 SSE 19 28 10 15 - - 0.0
17/12:30pm 12.5 7.7 4.7 59 3.6 S 19 28 10 15 - - 0.0
17/12:00pm 12.4 7.5 4.9 60 3.5 SSE 20 39 11 21 - - 0.0
17/11:30am 11.8 6.9 5.0 63 3.1 S 20 30 11 16 - - 0.0
17/11:00am 11.5 7.7 5.6 67 2.8 S 15 24 8 13 - - 0.0
17/10:30am 10.7 6.5 5.7 71 2.3 S 17 26 9 14 - - 0.0
17/10:00am 9.9 5.2 5.3 73 2.1 S 19 28 10 15 - - 0.0
17/09:30am 9.0 4.8 5.7 80 1.5 SSW 17 24 9 13 - - 0.0
17/09:00am 8.3 4.8 5.6 83 1.2 S 13 19 7 10 - - 0.0
17/08:30am 7.6 3.7 5.2 85 1.1 S 15 26 8 14 - - 0.0
17/08:00am 7.4 3.5 5.2 86 1.0 S 15 26 8 14 - - 0.0
17/07:30am 7.3 2.6 5.1 86 1.0 S 19 28 10 15 - - 0.0
17/07:00am 7.4 2.7 5.2 86 1.0 S 19 26 10 14 - - 0.0
17/06:30am 7.5 4.0 5.3 86 1.0 S 13 22 7 12 - - 0.0
17/06:00am 7.7 3.5 5.5 86 1.0 S 17 28 9 15 - - 0.0
17/05:30am 7.3 2.5 5.4 88 0.9 SSE 20 32 11 17 - - 0.0
17/05:00am 7.3 1.7 5.6 89 0.8 S 24 33 13 18 - - 0.0
17/04:30am 7.1 2.3 5.4 89 0.8 S 20 30 11 16 - - 0.0
17/04:00am 7.0 2.4 5.5 90 0.7 SSE 19 24 10 13 - - 0.0
17/03:30am 7.2 2.6 5.5 89 0.8 S 19 30 10 16 - - 0.0
17/03:00am 7.6 2.8 5.6 87 0.9 S 20 26 11 14 - - 0.0
17/02:30am 7.6 3.0 5.6 87 0.9 S 19 30 10 16 - - 0.0
17/02:00am 7.9 3.3 5.7 86 1.0 S 19 30 10 16 - - 0.0
17/01:30am 7.9 3.1 5.7 86 1.0 S 20 30 11 16 - - 0.0
17/01:00am 8.1 3.6 5.9 86 1.0 S 19 30 10 16 - - 0.0
17/12:30am 8.0 3.4 5.8 86 1.0 S 19 30 10 16 - - 0.0
17/12:00am 7.8 3.6 5.6 86 1.0 SSE 17 26 9 14 - - 0.0
 
Date/Time
EST
Temp
°C
App
Temp
°C
Dew
Point
°C
Rel
Hum
%
Delta-T
°C
Wind Press
QNH
hPa
Press
MSL
hPa
Rain since
9am
mm
Dir  Spd
km/h
Gust
km/h
Spd
kts
Gust
kts
16/11:30pm 8.1 3.6 5.9 86 1.0 SSE 19 30 10 16 - - 0.0
16/11:00pm 8.2 3.1 6.2 87 0.9 SSE 22 33 12 18 - - 0.0
16/10:30pm 8.4 3.7 5.9 84 1.1 SSE 20 32 11 17 - - 0.0
16/10:00pm 8.6 3.4 5.7 82 1.3 SSE 22 33 12 18 - - 0.0
16/09:30pm 8.7 4.1 5.6 81 1.4 S 19 33 10 18 - - 0.0
16/09:00pm 9.1 3.5 5.3 77 1.7 S 24 43 13 23 - - 0.0
16/08:30pm 8.9 4.0 5.1 77 1.7 S 20 32 11 17 - - 0.0
16/08:00pm 9.2 4.4 5.4 77 1.7 S 20 32 11 17 - - 0.0
16/07:30pm 9.1 4.5 5.7 79 1.6 S 19 28 10 15 - - 0.0
16/07:00pm 9.2 5.4 5.8 79 1.6 S 15 22 8 12 - - 0.0
16/06:30pm 9.4 6.8 5.9 79 1.6 S 9 24 5 13 - - 0.0
16/06:00pm 9.7 6.7 6.1 78 1.7 S 11 20 6 11 - - 0.0
16/05:30pm 9.8 5.9 5.4 74 2.0 S 15 24 8 13 - - 0.0
16/05:00pm 10.3 5.3 4.7 68 2.5 S 20 35 11 19 - - 0.0
16/04:30pm 10.3 6.6 4.5 67 2.6 S 13 24 7 13 - - 0.0
16/04:00pm 11.2 4.3 4.4 63 3.1 S 30 52 16 28 - - 0.0
16/03:53pm 11.4 4.7 3.9 60 3.4 S 28 52 15 28 - - 0.0
16/03:30pm 11.9 4.9 4.2 59 3.5 S 30 44 16 24 - - 0.0
16/03:00pm 11.7 4.9 3.0 55 3.8 S 28 48 15 26 - - 0.0
16/02:46pm 12.5 5.9 4.0 56 3.9 SSW 28 46 15 25 - - 0.0
16/02:30pm 12.1 5.8 3.9 57 3.7 S 26 50 14 27 - - 0.0
16/02:00pm 12.5 7.4 4.0 56 3.9 S 20 35 11 19 - - 0.0
16/01:30pm 12.0 6.5 3.8 57 3.7 S 22 33 12 18 - - 0.0
16/01:00pm 11.7 6.8 4.2 60 3.4 S 19 35 10 19 - - 0.0
16/12:30pm 11.4 5.5 3.9 60 3.4 S 24 43 13 23 - - 0.0
16/12:00pm 11.3 6.4 5.0 65 2.9 S 20 33 11 18 - - 0.0
16/11:30am 11.3 6.7 5.4 67 2.7 S 19 33 10 18 - - 0.0
16/11:00am 10.0 6.6 5.8 75 2.0 SSW 13 20 7 11 - - 0.0
16/10:30am 9.2 5.3 5.2 76 1.8 S 15 24 8 13 - - 0.0
16/10:00am 8.7 5.9 5.3 79 1.5 SSW 9 17 5 9 - - 0.0
16/09:30am 8.1 5.2 4.9 80 1.4 S 9 19 5 10 - - 0.0
16/09:00am 7.2 4.3 4.7 84 1.1 S 9 17 5 9 - - 0.0
16/08:30am 6.6 3.3 4.4 86 1.0 SSW 11 19 6 10 - - 0.0
16/08:00am 5.8 2.5 4.8 93 0.4 SSW 11 15 6 8 - - 0.0
16/07:30am 4.8 2.4 4.1 95 0.3 S 6 11 3 6 - - 0.0
16/07:00am 5.1 1.4 4.4 95 0.3 S 13 19 7 10 - - 0.0
16/06:30am 4.8 1.8 4.1 95 0.3 SSE 9 15 5 8 - - 0.0
16/06:00am 5.0 2.5 3.8 92 0.5 S 6 9 3 5 - - 0.0
16/05:30am 5.5 2.1 4.0 90 0.6 SSW 11 20 6 11 - - 0.0
16/05:00am 5.7 2.3 4.0 89 0.7 S 11 17 6 9 - - 0.0
16/04:30am 5.4 2.4 4.2 92 0.5 S 9 15 5 8 - - 0.0
16/04:00am 5.5 1.4 4.5 93 0.4 S 15 20 8 11 - - 0.0
16/03:30am 5.7 1.6 4.5 92 0.5 S 15 20 8 11 - - 0.0
16/03:00am 6.0 1.9 4.6 91 0.6 S 15 20 8 11 - - 0.0
16/02:30am 6.0 1.2 4.6 91 0.6 S 19 28 10 15 - - 0.0
16/02:00am 6.3 1.3 4.6 89 0.7 S 20 28 11 15 - - 0.0
16/01:30am 6.3 1.4 5.1 92 0.5 S 20 30 11 16 - - 0.0
16/01:00am 6.8 1.5 5.1 89 0.8 S 22 32 12 17 - - 0.0
16/12:30am 6.7 1.8 5.3 91 0.6 S 20 30 11 16 - - 0.0
16/12:00am 7.0 2.1 5.3 89 0.8 S 20 32 11 17 - - 0.0
 
Date/Time
EST
Temp
°C
App
Temp
°C
Dew
Point
°C
Rel
Hum
%
Delta-T
°C
Wind Press
QNH
hPa
Press
MSL
hPa
Rain since
9am
mm
Dir  Spd
km/h
Gust
km/h
Spd
kts
Gust
kts
15/11:30pm 7.3 3.4 5.4 88 0.9 S 15 20 8 11 - - 0.0
15/11:00pm 7.3 2.7 5.6 89 0.8 S 19 28 10 15 - - 0.0
15/10:30pm 7.4 2.2 5.7 89 0.8 S 22 32 12 17 - - 0.0
15/10:00pm 7.7 3.1 5.8 88 0.9 S 19 28 10 15 - - 0.0
15/09:30pm 8.0 3.2 5.8 86 1.0 S 20 32 11 17 - - 0.0
15/09:00pm 8.3 3.6 6.1 86 1.0 S 20 33 11 18 - - 0.0
15/08:30pm 8.5 4.4 6.0 84 1.2 S 17 26 9 14 - - 0.0
15/08:00pm 8.8 4.7 6.1 83 1.3 S 17 30 9 16 - - 0.0
15/07:30pm 9.1 5.0 6.0 81 1.4 S 17 26 9 14 - - 0.0
15/07:00pm 9.3 5.1 5.9 79 1.6 S 17 28 9 15 - - 0.0
15/06:30pm 9.8 5.0 5.8 76 1.9 S 20 30 11 16 - - 0.0

Other formats

Comma delimited format used in spreadsheet applications
http://www.bom.gov.au/fwo/IDV60801/IDV60801.94858.axf

JavaScript Object Notation format (JSON) in row-major order
http://www.bom.gov.au/fwo/IDV60801/IDV60801.94858.json

Data quality

Most of these data are generated automatically and are frequently updated. Quality checks on data are not normally performed. It is possible for incorrect values to appear. Refer to information at About Latest Weather Observations and please check the disclaimer before using these data.